Querinda Park, New Mexico
Current Conditions -  °F | °C
As of 2:55 AM on Friday 19 Dec 2014 (Local Time) from KAXX Reporting Station
Broken Clouds Broken Clouds  
Wind Chill: -12°   Ceiling: 1900
Heat Index: -12°   Visibility: 7mi
Dew Point: -13°   Wind: 0mph
Humidity: 93%   Direction: NA
Pressure: 30.1"   Gusts: NA
Location:  36.7124°N, 105.403°W
Report Text: KAXX 190955Z AUTO 00000KT 7SM BKN019 M12/M13 A3010 RMK AO2 T11211130
Loading
Personal Weather Stations






























Interactive Weather Map New forecast layout! Learn more

10-Day Weather Forecast

Advertisements
Track Severe Weather on mobile